Saint Regis, Montana
Current Conditions -  °F | °C
As of 8:53 PM on Saturday 25 Oct 2014 (Local Time) from KMLP Reporting Station
Overcast Overcast  
Wind Chill: 44°   Ceiling: 9500
Heat Index: 48°   Visibility: 10mi
Dew Point: 31°   Wind: 9mph
Humidity: 52%   Direction: 180°S
Pressure: 29.67"   Gusts: 20mph
Location:  47.3°N, 115.1°W
Report Text: KMLP 260253Z AUTO 18008G17KT 140V230 10SM OVC095 09/M01 A2967 RMK AO2 SLP991 60000 T00891006 56011
Loading
Personal Weather Stations






























Interactive Weather Map New forecast layout! Learn more

10-Day Weather Forecast

Advertisements
Track Severe Weather on mobile